sensor_id;sensor_type;location;lat;lon;timestamp;P1;durP1;ratioP1;P2;durP2;ratioP2
76423;SDS011;65257;52.104;4.268;2024-01-30T00:00:08;13.55;;;9.50;;
76423;SDS011;65257;52.104;4.268;2024-01-30T00:02:39;14.93;;;9.40;;
76423;SDS011;65257;52.104;4.268;2024-01-30T00:05:05;14.82;;;9.10;;
76423;SDS011;65257;52.104;4.268;2024-01-30T00:07:30;11.73;;;8.57;;
76423;SDS011;65257;52.104;4.268;2024-01-30T00:09:56;11.77;;;8.30;;
76423;SDS011;65257;52.104;4.268;2024-01-30T00:12:21;15.02;;;9.27;;
76423;SDS011;65257;52.104;4.268;2024-01-30T00:14:47;14.02;;;9.63;;
76423;SDS011;65257;52.104;4.268;2024-01-30T00:17:14;14.57;;;9.70;;
76423;SDS011;65257;52.104;4.268;2024-01-30T00:19:44;11.05;;;7.75;;
76423;SDS011;65257;52.104;4.268;2024-01-30T00:22:10;10.85;;;8.40;;
76423;SDS011;65257;52.104;4.268;2024-01-30T00:24:41;11.70;;;6.82;;
76423;SDS011;65257;52.104;4.268;2024-01-30T00:27:06;14.63;;;8.63;;
76423;SDS011;65257;52.104;4.268;2024-01-30T00:29:32;13.90;;;9.13;;
76423;SDS011;65257;52.104;4.268;2024-01-30T00:32:01;15.88;;;8.95;;
76423;SDS011;65257;52.104;4.268;2024-01-30T00:34:29;16.25;;;9.63;;
76423;SDS011;65257;52.104;4.268;2024-01-30T00:36:57;12.85;;;8.10;;
76423;SDS011;65257;52.104;4.268;2024-01-30T00:39:22;13.25;;;9.68;;
76423;SDS011;65257;52.104;4.268;2024-01-30T00:41:48;13.13;;;8.38;;
76423;SDS011;65257;52.104;4.268;2024-01-30T00:44:13;15.00;;;8.38;;
76423;SDS011;65257;52.104;4.268;2024-01-30T00:46:39;16.15;;;8.40;;
76423;SDS011;65257;52.104;4.268;2024-01-30T00:49:05;13.98;;;9.73;;
76423;SDS011;65257;52.104;4.268;2024-01-30T00:51:40;14.95;;;9.30;;
76423;SDS011;65257;52.104;4.268;2024-01-30T00:54:05;12.73;;;8.20;;
76423;SDS011;65257;52.104;4.268;2024-01-30T00:56:31;10.90;;;7.13;;
76423;SDS011;65257;52.104;4.268;2024-01-30T00:58:57;13.25;;;7.60;;
76423;SDS011;65257;52.104;4.268;2024-01-30T01:01:31;12.32;;;8.65;;
76423;SDS011;65257;52.104;4.268;2024-01-30T01:03:57;13.55;;;8.13;;
76423;SDS011;65257;52.104;4.268;2024-01-30T01:06:23;12.00;;;7.82;;
76423;SDS011;65257;52.104;4.268;2024-01-30T01:08:48;12.85;;;8.38;;
76423;SDS011;65257;52.104;4.268;2024-01-30T01:11:14;10.73;;;7.82;;
76423;SDS011;65257;52.104;4.268;2024-01-30T01:13:42;10.35;;;7.18;;
76423;SDS011;65257;52.104;4.268;2024-01-30T01:16:08;13.93;;;8.45;;
76423;SDS011;65257;52.104;4.268;2024-01-30T01:18:34;10.75;;;6.03;;
76423;SDS011;65257;52.104;4.268;2024-01-30T01:20:59;16.30;;;7.70;;
76423;SDS011;65257;52.104;4.268;2024-01-30T01:23:25;12.10;;;9.18;;
76423;SDS011;65257;52.104;4.268;2024-01-30T01:25:52;11.48;;;8.32;;
76423;SDS011;65257;52.104;4.268;2024-01-30T01:28:20;10.95;;;6.97;;
76423;SDS011;65257;52.104;4.268;2024-01-30T01:30:46;12.55;;;8.02;;
76423;SDS011;65257;52.104;4.268;2024-01-30T01:33:11;11.82;;;8.15;;
76423;SDS011;65257;52.104;4.268;2024-01-30T01:35:39;13.27;;;8.20;;
76423;SDS011;65257;52.104;4.268;2024-01-30T01:38:05;17.00;;;8.93;;
76423;SDS011;65257;52.104;4.268;2024-01-30T01:40:31;12.13;;;7.43;;
76423;SDS011;65257;52.104;4.268;2024-01-30T01:42:56;11.82;;;6.40;;
76423;SDS011;65257;52.104;4.268;2024-01-30T01:45:24;13.27;;;8.35;;
76423;SDS011;65257;52.104;4.268;2024-01-30T01:47:50;12.07;;;7.72;;
76423;SDS011;65257;52.104;4.268;2024-01-30T01:50:17;11.23;;;8.30;;
76423;SDS011;65257;52.104;4.268;2024-01-30T01:52:44;12.15;;;8.55;;
76423;SDS011;65257;52.104;4.268;2024-01-30T01:57:37;12.35;;;8.45;;
76423;SDS011;65257;52.104;4.268;2024-01-30T02:00:03;10.20;;;7.82;;
76423;SDS011;65257;52.104;4.268;2024-01-30T02:02:34;12.32;;;7.60;;
76423;SDS011;65257;52.104;4.268;2024-01-30T02:05:02;11.00;;;6.82;;
76423;SDS011;65257;52.104;4.268;2024-01-30T02:07:29;15.20;;;8.30;;
76423;SDS011;65257;52.104;4.268;2024-01-30T02:09:54;13.77;;;7.85;;
76423;SDS011;65257;52.104;4.268;2024-01-30T02:12:24;11.80;;;8.50;;
76423;SDS011;65257;52.104;4.268;2024-01-30T02:14:50;12.32;;;9.13;;
76423;SDS011;65257;52.104;4.268;2024-01-30T02:17:15;13.00;;;7.90;;
76423;SDS011;65257;52.104;4.268;2024-01-30T02:19:41;16.30;;;7.40;;
76423;SDS011;65257;52.104;4.268;2024-01-30T02:22:07;12.95;;;8.95;;
76423;SDS011;65257;52.104;4.268;2024-01-30T02:24:36;11.85;;;7.72;;
76423;SDS011;65257;52.104;4.268;2024-01-30T02:27:01;12.65;;;8.20;;
76423;SDS011;65257;52.104;4.268;2024-01-30T02:29:27;9.02;;;5.88;;
76423;SDS011;65257;52.104;4.268;2024-01-30T02:31:52;13.85;;;7.88;;
76423;SDS011;65257;52.104;4.268;2024-01-30T02:34:18;11.48;;;7.53;;
76423;SDS011;65257;52.104;4.268;2024-01-30T02:36:44;12.18;;;7.90;;
76423;SDS011;65257;52.104;4.268;2024-01-30T02:39:14;15.18;;;8.50;;
76423;SDS011;65257;52.104;4.268;2024-01-30T02:41:39;15.38;;;9.48;;
76423;SDS011;65257;52.104;4.268;2024-01-30T02:44:08;14.43;;;9.35;;
76423;SDS011;65257;52.104;4.268;2024-01-30T02:46:33;13.40;;;9.55;;
76423;SDS011;65257;52.104;4.268;2024-01-30T02:48:59;11.82;;;9.02;;
76423;SDS011;65257;52.104;4.268;2024-01-30T02:51:24;12.77;;;8.45;;
76423;SDS011;65257;52.104;4.268;2024-01-30T02:53:50;9.98;;;6.28;;
76423;SDS011;65257;52.104;4.268;2024-01-30T02:56:18;13.25;;;9.60;;
76423;SDS011;65257;52.104;4.268;2024-01-30T02:58:44;12.55;;;8.10;;
76423;SDS011;65257;52.104;4.268;2024-01-30T03:01:09;12.48;;;7.90;;
76423;SDS011;65257;52.104;4.268;2024-01-30T03:03:34;16.17;;;8.57;;
76423;SDS011;65257;52.104;4.268;2024-01-30T03:06:01;12.32;;;7.85;;
76423;SDS011;65257;52.104;4.268;2024-01-30T03:08:32;13.57;;;7.00;;
76423;SDS011;65257;52.104;4.268;2024-01-30T03:10:59;11.95;;;7.82;;
76423;SDS011;65257;52.104;4.268;2024-01-30T03:13:25;11.85;;;7.63;;
76423;SDS011;65257;52.104;4.268;2024-01-30T03:15:50;11.60;;;7.13;;
76423;SDS011;65257;52.104;4.268;2024-01-30T03:18:19;14.48;;;8.55;;
76423;SDS011;65257;52.104;4.268;2024-01-30T03:20:47;11.63;;;8.73;;
76423;SDS011;65257;52.104;4.268;2024-01-30T03:23:12;12.23;;;8.00;;
76423;SDS011;65257;52.104;4.268;2024-01-30T03:25:38;14.35;;;8.05;;
76423;SDS011;65257;52.104;4.268;2024-01-30T03:28:09;11.13;;;7.28;;
76423;SDS011;65257;52.104;4.268;2024-01-30T03:30:34;12.68;;;7.63;;
76423;SDS011;65257;52.104;4.268;2024-01-30T03:33:03;10.68;;;6.85;;
76423;SDS011;65257;52.104;4.268;2024-01-30T03:35:28;14.27;;;8.43;;
76423;SDS011;65257;52.104;4.268;2024-01-30T03:38:00;9.30;;;6.78;;
76423;SDS011;65257;52.104;4.268;2024-01-30T03:40:25;11.32;;;7.90;;
76423;SDS011;65257;52.104;4.268;2024-01-30T03:43:00;13.63;;;7.30;;
76423;SDS011;65257;52.104;4.268;2024-01-30T03:45:39;11.63;;;7.10;;
76423;SDS011;65257;52.104;4.268;2024-01-30T03:48:09;13.07;;;7.63;;
76423;SDS011;65257;52.104;4.268;2024-01-30T03:50:34;12.73;;;9.30;;
76423;SDS011;65257;52.104;4.268;2024-01-30T03:53:00;12.50;;;8.35;;
76423;SDS011;65257;52.104;4.268;2024-01-30T03:55:26;14.25;;;7.25;;
76423;SDS011;65257;52.104;4.268;2024-01-30T03:58:00;14.05;;;8.30;;
76423;SDS011;65257;52.104;4.268;2024-01-30T04:00:26;10.23;;;6.97;;
76423;SDS011;65257;52.104;4.268;2024-01-30T04:02:54;12.25;;;7.65;;
76423;SDS011;65257;52.104;4.268;2024-01-30T04:05:26;15.88;;;7.95;;
76423;SDS011;65257;52.104;4.268;2024-01-30T04:07:51;12.43;;;7.18;;
76423;SDS011;65257;52.104;4.268;2024-01-30T04:10:16;12.05;;;6.43;;
76423;SDS011;65257;52.104;4.268;2024-01-30T04:12:45;11.13;;;7.70;;
76423;SDS011;65257;52.104;4.268;2024-01-30T04:15:10;12.45;;;8.02;;
76423;SDS011;65257;52.104;4.268;2024-01-30T04:17:41;12.43;;;8.25;;
76423;SDS011;65257;52.104;4.268;2024-01-30T04:20:13;11.95;;;8.25;;
76423;SDS011;65257;52.104;4.268;2024-01-30T04:22:44;11.88;;;8.00;;
76423;SDS011;65257;52.104;4.268;2024-01-30T04:25:20;12.43;;;7.47;;
76423;SDS011;65257;52.104;4.268;2024-01-30T04:27:47;12.18;;;8.55;;
76423;SDS011;65257;52.104;4.268;2024-01-30T04:30:13;14.57;;;8.02;;
76423;SDS011;65257;52.104;4.268;2024-01-30T04:32:40;12.63;;;7.63;;
76423;SDS011;65257;52.104;4.268;2024-01-30T04:35:06;11.55;;;7.60;;
76423;SDS011;65257;52.104;4.268;2024-01-30T04:37:31;11.32;;;7.30;;
76423;SDS011;65257;52.104;4.268;2024-01-30T04:39:57;12.55;;;7.47;;
76423;SDS011;65257;52.104;4.268;2024-01-30T04:42:25;12.55;;;8.05;;
76423;SDS011;65257;52.104;4.268;2024-01-30T04:44:51;8.88;;;5.97;;
76423;SDS011;65257;52.104;4.268;2024-01-30T04:47:23;11.75;;;7.80;;
76423;SDS011;65257;52.104;4.268;2024-01-30T04:49:57;10.43;;;6.80;;
76423;SDS011;65257;52.104;4.268;2024-01-30T04:52:26;10.75;;;7.15;;
76423;SDS011;65257;52.104;4.268;2024-01-30T04:54:55;11.88;;;7.88;;
76423;SDS011;65257;52.104;4.268;2024-01-30T04:57:20;11.50;;;8.23;;
76423;SDS011;65257;52.104;4.268;2024-01-30T04:59:49;15.30;;;8.75;;
76423;SDS011;65257;52.104;4.268;2024-01-30T05:02:14;12.75;;;7.65;;
76423;SDS011;65257;52.104;4.268;2024-01-30T05:04:43;12.13;;;7.40;;
76423;SDS011;65257;52.104;4.268;2024-01-30T05:07:08;15.30;;;8.27;;
76423;SDS011;65257;52.104;4.268;2024-01-30T05:09:34;12.10;;;6.00;;
76423;SDS011;65257;52.104;4.268;2024-01-30T05:11:59;11.65;;;8.85;;
76423;SDS011;65257;52.104;4.268;2024-01-30T05:14:25;10.38;;;6.10;;
76423;SDS011;65257;52.104;4.268;2024-01-30T05:16:50;12.00;;;7.85;;
76423;SDS011;65257;52.104;4.268;2024-01-30T05:19:16;11.43;;;8.32;;
76423;SDS011;65257;52.104;4.268;2024-01-30T05:21:42;12.25;;;7.45;;
76423;SDS011;65257;52.104;4.268;2024-01-30T05:24:07;14.77;;;7.03;;
76423;SDS011;65257;52.104;4.268;2024-01-30T05:26:35;10.50;;;6.72;;
76423;SDS011;65257;52.104;4.268;2024-01-30T05:29:01;16.45;;;7.30;;
76423;SDS011;65257;52.104;4.268;2024-01-30T05:31:26;13.57;;;7.78;;
76423;SDS011;65257;52.104;4.268;2024-01-30T05:33:52;14.27;;;7.45;;
76423;SDS011;65257;52.104;4.268;2024-01-30T05:36:20;10.73;;;7.57;;
76423;SDS011;65257;52.104;4.268;2024-01-30T05:38:49;13.15;;;7.72;;
76423;SDS011;65257;52.104;4.268;2024-01-30T05:41:15;14.55;;;7.63;;
76423;SDS011;65257;52.104;4.268;2024-01-30T05:43:43;9.05;;;7.05;;
76423;SDS011;65257;52.104;4.268;2024-01-30T05:46:12;12.18;;;7.05;;
76423;SDS011;65257;52.104;4.268;2024-01-30T05:48:41;10.90;;;6.75;;
76423;SDS011;65257;52.104;4.268;2024-01-30T05:51:07;10.73;;;6.22;;
76423;SDS011;65257;52.104;4.268;2024-01-30T05:53:33;13.00;;;8.00;;
76423;SDS011;65257;52.104;4.268;2024-01-30T05:56:02;10.88;;;6.80;;
76423;SDS011;65257;52.104;4.268;2024-01-30T05:58:33;13.90;;;8.48;;
76423;SDS011;65257;52.104;4.268;2024-01-30T06:00:59;10.55;;;7.25;;
76423;SDS011;65257;52.104;4.268;2024-01-30T06:03:25;14.75;;;7.60;;
76423;SDS011;65257;52.104;4.268;2024-01-30T06:05:50;9.23;;;6.07;;
76423;SDS011;65257;52.104;4.268;2024-01-30T06:08:17;11.43;;;6.72;;
76423;SDS011;65257;52.104;4.268;2024-01-30T06:10:44;16.13;;;7.25;;
76423;SDS011;65257;52.104;4.268;2024-01-30T06:13:09;14.07;;;8.50;;
76423;SDS011;65257;52.104;4.268;2024-01-30T06:15:35;16.25;;;8.18;;
76423;SDS011;65257;52.104;4.268;2024-01-30T06:18:03;13.25;;;7.47;;
76423;SDS011;65257;52.104;4.268;2024-01-30T06:20:28;14.32;;;8.35;;
76423;SDS011;65257;52.104;4.268;2024-01-30T06:22:54;11.15;;;7.25;;
76423;SDS011;65257;52.104;4.268;2024-01-30T06:25:20;12.88;;;7.18;;
76423;SDS011;65257;52.104;4.268;2024-01-30T06:27:45;13.45;;;7.63;;
76423;SDS011;65257;52.104;4.268;2024-01-30T06:30:11;13.10;;;8.25;;
76423;SDS011;65257;52.104;4.268;2024-01-30T06:32:37;15.52;;;8.13;;
76423;SDS011;65257;52.104;4.268;2024-01-30T06:35:07;11.40;;;7.47;;
76423;SDS011;65257;52.104;4.268;2024-01-30T06:37:33;13.25;;;8.52;;
76423;SDS011;65257;52.104;4.268;2024-01-30T06:39:58;13.45;;;7.22;;
76423;SDS011;65257;52.104;4.268;2024-01-30T06:42:24;12.13;;;6.70;;
76423;SDS011;65257;52.104;4.268;2024-01-30T06:44:50;10.77;;;6.88;;
76423;SDS011;65257;52.104;4.268;2024-01-30T06:47:15;9.55;;;6.53;;
76423;SDS011;65257;52.104;4.268;2024-01-30T06:49:41;11.27;;;7.78;;
76423;SDS011;65257;52.104;4.268;2024-01-30T06:52:07;12.40;;;7.32;;
76423;SDS011;65257;52.104;4.268;2024-01-30T06:54:33;15.38;;;8.45;;
76423;SDS011;65257;52.104;4.268;2024-01-30T06:57:02;12.40;;;7.00;;
76423;SDS011;65257;52.104;4.268;2024-01-30T06:59:28;14.82;;;7.72;;
76423;SDS011;65257;52.104;4.268;2024-01-30T07:01:59;14.73;;;8.52;;
76423;SDS011;65257;52.104;4.268;2024-01-30T07:04:24;14.43;;;8.25;;
76423;SDS011;65257;52.104;4.268;2024-01-30T07:06:50;17.60;;;8.40;;
76423;SDS011;65257;52.104;4.268;2024-01-30T07:09:16;18.52;;;8.88;;
76423;SDS011;65257;52.104;4.268;2024-01-30T07:11:41;17.15;;;9.07;;
76423;SDS011;65257;52.104;4.268;2024-01-30T07:14:10;17.40;;;8.73;;
76423;SDS011;65257;52.104;4.268;2024-01-30T07:16:35;13.23;;;8.15;;
76423;SDS011;65257;52.104;4.268;2024-01-30T07:19:04;15.65;;;9.02;;
76423;SDS011;65257;52.104;4.268;2024-01-30T07:21:29;17.88;;;9.43;;
76423;SDS011;65257;52.104;4.268;2024-01-30T07:23:55;13.57;;;8.15;;
76423;SDS011;65257;52.104;4.268;2024-01-30T07:26:24;10.90;;;7.18;;
76423;SDS011;65257;52.104;4.268;2024-01-30T07:28:58;13.07;;;8.50;;
76423;SDS011;65257;52.104;4.268;2024-01-30T07:31:24;11.38;;;5.63;;
76423;SDS011;65257;52.104;4.268;2024-01-30T07:33:49;18.48;;;9.35;;
76423;SDS011;65257;52.104;4.268;2024-01-30T07:36:15;16.27;;;8.93;;
76423;SDS011;65257;52.104;4.268;2024-01-30T07:38:40;16.70;;;8.38;;
76423;SDS011;65257;52.104;4.268;2024-01-30T07:41:09;16.52;;;9.35;;
76423;SDS011;65257;52.104;4.268;2024-01-30T07:43:34;21.23;;;10.63;;
76423;SDS011;65257;52.104;4.268;2024-01-30T07:46:01;17.02;;;10.35;;
76423;SDS011;65257;52.104;4.268;2024-01-30T07:48:31;14.93;;;7.75;;
76423;SDS011;65257;52.104;4.268;2024-01-30T07:51:02;17.70;;;10.02;;
76423;SDS011;65257;52.104;4.268;2024-01-30T07:53:32;17.02;;;10.00;;
76423;SDS011;65257;52.104;4.268;2024-01-30T07:56:01;18.48;;;9.85;;
76423;SDS011;65257;52.104;4.268;2024-01-30T07:58:27;17.38;;;8.55;;
76423;SDS011;65257;52.104;4.268;2024-01-30T08:00:53;14.75;;;9.35;;
76423;SDS011;65257;52.104;4.268;2024-01-30T08:03:19;21.00;;;10.73;;
76423;SDS011;65257;52.104;4.268;2024-01-30T08:05:44;13.88;;;7.53;;
76423;SDS011;65257;52.104;4.268;2024-01-30T08:08:09;19.77;;;9.68;;
76423;SDS011;65257;52.104;4.268;2024-01-30T08:10:35;20.98;;;10.05;;
76423;SDS011;65257;52.104;4.268;2024-01-30T08:13:02;16.80;;;11.18;;
76423;SDS011;65257;52.104;4.268;2024-01-30T08:15:31;20.02;;;9.98;;
76423;SDS011;65257;52.104;4.268;2024-01-30T08:17:56;23.98;;;10.63;;
76423;SDS011;65257;52.104;4.268;2024-01-30T08:20:24;24.38;;;11.45;;
76423;SDS011;65257;52.104;4.268;2024-01-30T08:22:50;28.20;;;11.90;;
76423;SDS011;65257;52.104;4.268;2024-01-30T08:25:15;39.45;;;12.13;;
76423;SDS011;65257;52.104;4.268;2024-01-30T08:27:41;35.13;;;13.52;;
76423;SDS011;65257;52.104;4.268;2024-01-30T08:30:06;34.05;;;14.00;;
76423;SDS011;65257;52.104;4.268;2024-01-30T08:32:43;34.58;;;12.57;;
76423;SDS011;65257;52.104;4.268;2024-01-30T08:35:09;31.13;;;14.25;;
76423;SDS011;65257;52.104;4.268;2024-01-30T08:37:37;42.70;;;14.40;;
76423;SDS011;65257;52.104;4.268;2024-01-30T08:40:06;32.15;;;12.90;;
76423;SDS011;65257;52.104;4.268;2024-01-30T08:42:36;38.92;;;15.35;;
76423;SDS011;65257;52.104;4.268;2024-01-30T08:45:02;36.22;;;13.15;;
76423;SDS011;65257;52.104;4.268;2024-01-30T08:47:30;24.73;;;12.35;;
76423;SDS011;65257;52.104;4.268;2024-01-30T08:50:01;32.50;;;12.20;;
76423;SDS011;65257;52.104;4.268;2024-01-30T08:52:27;26.67;;;9.85;;
76423;SDS011;65257;52.104;4.268;2024-01-30T08:54:55;21.55;;;10.55;;
76423;SDS011;65257;52.104;4.268;2024-01-30T08:57:20;27.92;;;7.85;;
76423;SDS011;65257;52.104;4.268;2024-01-30T08:59:46;25.33;;;6.95;;
76423;SDS011;65257;52.104;4.268;2024-01-30T09:02:13;23.67;;;6.50;;
76423;SDS011;65257;52.104;4.268;2024-01-30T09:04:41;22.70;;;6.07;;
76423;SDS011;65257;52.104;4.268;2024-01-30T09:07:08;25.30;;;7.13;;
76423;SDS011;65257;52.104;4.268;2024-01-30T09:09:38;27.48;;;6.90;;
76423;SDS011;65257;52.104;4.268;2024-01-30T09:12:06;23.38;;;6.07;;
76423;SDS011;65257;52.104;4.268;2024-01-30T09:14:39;29.65;;;7.05;;
76423;SDS011;65257;52.104;4.268;2024-01-30T09:17:09;27.08;;;5.95;;
76423;SDS011;65257;52.104;4.268;2024-01-30T09:19:34;25.98;;;9.20;;
76423;SDS011;65257;52.104;4.268;2024-01-30T09:22:00;25.05;;;7.10;;
76423;SDS011;65257;52.104;4.268;2024-01-30T09:24:26;32.17;;;7.00;;
76423;SDS011;65257;52.104;4.268;2024-01-30T09:26:55;45.67;;;10.38;;
76423;SDS011;65257;52.104;4.268;2024-01-30T09:29:21;24.15;;;5.97;;
76423;SDS011;65257;52.104;4.268;2024-01-30T09:31:46;19.00;;;3.83;;
76423;SDS011;65257;52.104;4.268;2024-01-30T09:34:12;27.27;;;5.53;;
76423;SDS011;65257;52.104;4.268;2024-01-30T09:36:41;23.90;;;4.68;;
76423;SDS011;65257;52.104;4.268;2024-01-30T09:39:07;29.23;;;4.60;;
76423;SDS011;65257;52.104;4.268;2024-01-30T09:41:33;29.20;;;6.00;;
76423;SDS011;65257;52.104;4.268;2024-01-30T09:44:11;21.42;;;4.93;;
76423;SDS011;65257;52.104;4.268;2024-01-30T09:46:38;15.02;;;3.58;;
76423;SDS011;65257;52.104;4.268;2024-01-30T09:49:13;19.95;;;4.43;;
76423;SDS011;65257;52.104;4.268;2024-01-30T09:51:40;28.33;;;6.65;;
76423;SDS011;65257;52.104;4.268;2024-01-30T09:54:06;19.20;;;4.72;;
76423;SDS011;65257;52.104;4.268;2024-01-30T09:59:01;18.52;;;5.35;;
76423;SDS011;65257;52.104;4.268;2024-01-30T10:01:27;23.17;;;4.70;;
76423;SDS011;65257;52.104;4.268;2024-01-30T10:03:53;17.75;;;3.70;;
76423;SDS011;65257;52.104;4.268;2024-01-30T10:06:19;23.00;;;5.70;;
76423;SDS011;65257;52.104;4.268;2024-01-30T10:08:45;23.88;;;6.18;;
76423;SDS011;65257;52.104;4.268;2024-01-30T10:11:14;29.10;;;6.47;;
76423;SDS011;65257;52.104;4.268;2024-01-30T10:13:43;17.27;;;3.97;;
76423;SDS011;65257;52.104;4.268;2024-01-30T10:16:08;32.10;;;5.95;;
76423;SDS011;65257;52.104;4.268;2024-01-30T10:18:34;30.15;;;9.02;;
76423;SDS011;65257;52.104;4.268;2024-01-30T10:21:00;25.02;;;5.82;;
76423;SDS011;65257;52.104;4.268;2024-01-30T10:23:29;35.58;;;6.80;;
76423;SDS011;65257;52.104;4.268;2024-01-30T10:25:55;25.40;;;4.78;;
76423;SDS011;65257;52.104;4.268;2024-01-30T10:28:20;25.20;;;5.78;;
76423;SDS011;65257;52.104;4.268;2024-01-30T10:30:46;22.25;;;4.13;;
76423;SDS011;65257;52.104;4.268;2024-01-30T10:33:21;30.42;;;6.10;;
76423;SDS011;65257;52.104;4.268;2024-01-30T10:35:47;24.92;;;6.25;;
76423;SDS011;65257;52.104;4.268;2024-01-30T10:38:25;26.80;;;5.40;;
76423;SDS011;65257;52.104;4.268;2024-01-30T10:40:57;24.52;;;5.28;;
76423;SDS011;65257;52.104;4.268;2024-01-30T10:43:31;26.40;;;6.40;;
76423;SDS011;65257;52.104;4.268;2024-01-30T10:48:49;28.58;;;7.18;;
76423;SDS011;65257;52.104;4.268;2024-01-30T10:51:28;23.90;;;6.32;;
76423;SDS011;65257;52.104;4.268;2024-01-30T10:53:54;24.25;;;6.00;;
76423;SDS011;65257;52.104;4.268;2024-01-30T10:56:33;26.02;;;5.07;;
76423;SDS011;65257;52.104;4.268;2024-01-30T10:59:03;31.42;;;6.80;;
76423;SDS011;65257;52.104;4.268;2024-01-30T11:01:35;28.98;;;6.30;;
76423;SDS011;65257;52.104;4.268;2024-01-30T11:04:07;27.98;;;6.53;;
76423;SDS011;65257;52.104;4.268;2024-01-30T11:06:42;33.20;;;6.05;;
76423;SDS011;65257;52.104;4.268;2024-01-30T11:09:11;25.30;;;5.60;;
76423;SDS011;65257;52.104;4.268;2024-01-30T11:11:56;27.33;;;5.25;;
76423;SDS011;65257;52.104;4.268;2024-01-30T11:14:27;31.80;;;6.28;;
76423;SDS011;65257;52.104;4.268;2024-01-30T11:16:58;25.77;;;5.60;;
76423;SDS011;65257;52.104;4.268;2024-01-30T11:19:30;19.98;;;4.47;;
76423;SDS011;65257;52.104;4.268;2024-01-30T11:21:56;22.70;;;5.43;;
76423;SDS011;65257;52.104;4.268;2024-01-30T11:24:23;29.88;;;6.97;;
76423;SDS011;65257;52.104;4.268;2024-01-30T11:26:49;26.30;;;6.38;;
76423;SDS011;65257;52.104;4.268;2024-01-30T11:29:18;28.50;;;6.05;;
76423;SDS011;65257;52.104;4.268;2024-01-30T11:31:54;31.35;;;6.85;;
76423;SDS011;65257;52.104;4.268;2024-01-30T11:34:23;36.53;;;8.65;;
76423;SDS011;65257;52.104;4.268;2024-01-30T11:36:59;41.42;;;7.60;;
76423;SDS011;65257;52.104;4.268;2024-01-30T11:39:31;37.08;;;7.15;;
76423;SDS011;65257;52.104;4.268;2024-01-30T11:42:04;31.63;;;7.45;;
76423;SDS011;65257;52.104;4.268;2024-01-30T11:44:30;34.13;;;6.38;;
76423;SDS011;65257;52.104;4.268;2024-01-30T11:47:04;26.92;;;6.63;;
76423;SDS011;65257;52.104;4.268;2024-01-30T11:49:33;19.83;;;4.68;;
76423;SDS011;65257;52.104;4.268;2024-01-30T11:52:02;34.15;;;9.45;;
76423;SDS011;65257;52.104;4.268;2024-01-30T11:54:28;17.75;;;5.22;;
76423;SDS011;65257;52.104;4.268;2024-01-30T11:56:57;23.90;;;5.47;;
76423;SDS011;65257;52.104;4.268;2024-01-30T11:59:25;33.03;;;6.72;;
76423;SDS011;65257;52.104;4.268;2024-01-30T12:01:54;31.92;;;7.55;;
76423;SDS011;65257;52.104;4.268;2024-01-30T12:04:22;31.52;;;6.28;;
76423;SDS011;65257;52.104;4.268;2024-01-30T12:06:50;28.05;;;5.78;;
76423;SDS011;65257;52.104;4.268;2024-01-30T12:09:19;22.88;;;4.95;;
76423;SDS011;65257;52.104;4.268;2024-01-30T12:11:48;32.58;;;6.72;;
76423;SDS011;65257;52.104;4.268;2024-01-30T12:14:18;28.48;;;5.40;;
76423;SDS011;65257;52.104;4.268;2024-01-30T12:16:48;29.67;;;5.70;;
76423;SDS011;65257;52.104;4.268;2024-01-30T12:19:21;23.48;;;4.82;;
76423;SDS011;65257;52.104;4.268;2024-01-30T12:21:53;20.65;;;6.30;;
76423;SDS011;65257;52.104;4.268;2024-01-30T12:24:28;28.33;;;6.97;;
76423;SDS011;65257;52.104;4.268;2024-01-30T12:26:58;18.90;;;5.35;;
76423;SDS011;65257;52.104;4.268;2024-01-30T12:29:25;19.27;;;5.10;;
76423;SDS011;65257;52.104;4.268;2024-01-30T12:31:54;15.15;;;4.63;;
76423;SDS011;65257;52.104;4.268;2024-01-30T12:34:20;20.23;;;4.55;;
76423;SDS011;65257;52.104;4.268;2024-01-30T12:36:49;28.05;;;8.13;;
76423;SDS011;65257;52.104;4.268;2024-01-30T12:39:15;23.65;;;6.05;;
76423;SDS011;65257;52.104;4.268;2024-01-30T12:41:40;26.20;;;5.85;;
76423;SDS011;65257;52.104;4.268;2024-01-30T12:44:06;27.95;;;6.65;;
76423;SDS011;65257;52.104;4.268;2024-01-30T12:46:33;26.42;;;5.28;;
76423;SDS011;65257;52.104;4.268;2024-01-30T12:49:05;25.30;;;6.00;;
76423;SDS011;65257;52.104;4.268;2024-01-30T12:51:33;27.60;;;6.93;;
76423;SDS011;65257;52.104;4.268;2024-01-30T12:54:03;17.30;;;4.22;;
76423;SDS011;65257;52.104;4.268;2024-01-30T12:56:32;24.70;;;5.15;;
76423;SDS011;65257;52.104;4.268;2024-01-30T12:58:58;14.75;;;3.53;;
76423;SDS011;65257;52.104;4.268;2024-01-30T13:01:27;17.13;;;3.80;;
76423;SDS011;65257;52.104;4.268;2024-01-30T13:03:52;11.95;;;4.28;;
76423;SDS011;65257;52.104;4.268;2024-01-30T13:06:19;18.95;;;4.80;;
76423;SDS011;65257;52.104;4.268;2024-01-30T13:08:45;21.17;;;4.45;;
76423;SDS011;65257;52.104;4.268;2024-01-30T13:11:11;11.95;;;3.85;;
76423;SDS011;65257;52.104;4.268;2024-01-30T13:13:37;10.43;;;3.38;;
76423;SDS011;65257;52.104;4.268;2024-01-30T13:16:06;10.20;;;3.70;;
76423;SDS011;65257;52.104;4.268;2024-01-30T13:18:34;16.88;;;3.40;;
76423;SDS011;65257;52.104;4.268;2024-01-30T13:21:01;15.88;;;3.55;;
76423;SDS011;65257;52.104;4.268;2024-01-30T13:23:28;11.27;;;3.33;;
76423;SDS011;65257;52.104;4.268;2024-01-30T13:25:54;18.50;;;4.30;;
76423;SDS011;65257;52.104;4.268;2024-01-30T13:28:25;13.05;;;3.78;;
76423;SDS011;65257;52.104;4.268;2024-01-30T13:30:53;18.27;;;4.07;;
76423;SDS011;65257;52.104;4.268;2024-01-30T13:33:22;13.57;;;3.35;;
76423;SDS011;65257;52.104;4.268;2024-01-30T13:35:47;13.27;;;4.30;;
76423;SDS011;65257;52.104;4.268;2024-01-30T13:38:16;17.80;;;3.95;;
76423;SDS011;65257;52.104;4.268;2024-01-30T13:40:45;17.75;;;4.15;;
76423;SDS011;65257;52.104;4.268;2024-01-30T13:43:10;19.10;;;4.25;;
76423;SDS011;65257;52.104;4.268;2024-01-30T13:45:37;18.98;;;4.63;;
76423;SDS011;65257;52.104;4.268;2024-01-30T13:48:05;10.50;;;3.10;;
76423;SDS011;65257;52.104;4.268;2024-01-30T13:50:31;12.35;;;3.08;;
76423;SDS011;65257;52.104;4.268;2024-01-30T13:53:02;15.90;;;4.20;;
76423;SDS011;65257;52.104;4.268;2024-01-30T13:55:29;15.10;;;4.38;;
76423;SDS011;65257;52.104;4.268;2024-01-30T13:58:00;16.00;;;4.05;;
76423;SDS011;65257;52.104;4.268;2024-01-30T14:00:29;14.35;;;3.72;;
76423;SDS011;65257;52.104;4.268;2024-01-30T14:02:57;14.40;;;3.50;;
76423;SDS011;65257;52.104;4.268;2024-01-30T14:05:24;13.48;;;3.33;;
76423;SDS011;65257;52.104;4.268;2024-01-30T14:07:50;16.05;;;3.85;;
76423;SDS011;65257;52.104;4.268;2024-01-30T14:10:17;17.10;;;3.53;;
76423;SDS011;65257;52.104;4.268;2024-01-30T14:12:43;15.60;;;4.30;;
76423;SDS011;65257;52.104;4.268;2024-01-30T14:15:09;15.70;;;4.50;;
76423;SDS011;65257;52.104;4.268;2024-01-30T14:17:36;21.48;;;5.25;;
76423;SDS011;65257;52.104;4.268;2024-01-30T14:20:05;20.70;;;4.97;;
76423;SDS011;65257;52.104;4.268;2024-01-30T14:22:34;16.10;;;4.65;;
76423;SDS011;65257;52.104;4.268;2024-01-30T14:25:00;14.10;;;3.88;;
76423;SDS011;65257;52.104;4.268;2024-01-30T14:27:32;22.40;;;4.43;;
76423;SDS011;65257;52.104;4.268;2024-01-30T14:30:03;14.68;;;4.22;;
76423;SDS011;65257;52.104;4.268;2024-01-30T14:35:12;16.00;;;3.25;;
76423;SDS011;65257;52.104;4.268;2024-01-30T14:37:38;13.90;;;3.85;;
76423;SDS011;65257;52.104;4.268;2024-01-30T14:40:06;14.18;;;4.43;;
76423;SDS011;65257;52.104;4.268;2024-01-30T14:42:32;17.08;;;4.72;;
76423;SDS011;65257;52.104;4.268;2024-01-30T14:45:05;14.75;;;4.75;;